Terminal Aerodrome Forecast
Issued by NWS Binghamton, NY

Home | Current Version | Previous Version | Text Only | Print | Product List | Glossary On
Versions: 1 2 3 4 5 6 7 8 9 10 11 12 13 14
499
FTUS41 KBGM 221133
TAFBGM
TAF
KBGM 221133Z 2212/2312 18005KT P6SM OVC050
      TEMPO 2212/2215 -SHRA OVC025
     FM230400 VRB03KT P6SM BKN025=

USA.gov is the U.S. government's official web portal to all federal, state and local government web resources and services.